createdAt,value
2023-01-19T00:00:21.451Z,-1.7
2023-01-19T00:02:17.301Z,-1.6
2023-01-19T00:06:20.104Z,-1.6
2023-01-19T00:12:14.621Z,-1.5
2023-01-19T00:18:15.851Z,-1.5
2023-01-19T00:20:21.158Z,-1.4
2023-01-19T00:22:20.775Z,-1.4
2023-01-19T00:24:19.592Z,-1.5
2023-01-19T00:30:18.158Z,-1.4
2023-01-19T00:34:14.659Z,-1.5
2023-01-19T00:36:18.162Z,-1.5
2023-01-19T00:38:19.612Z,-1.4
2023-01-19T00:40:19.354Z,-1.5
2023-01-19T00:42:21.309Z,-1.4
2023-01-19T00:48:18.270Z,-1.5
2023-01-19T00:52:15.722Z,-1.5
2023-01-19T00:54:17.517Z,-1.6
2023-01-19T00:58:16.216Z,-1.6
2023-01-19T01:00:17.499Z,-1.6
2023-01-19T01:04:20.374Z,-1.6
2023-01-19T01:06:21.425Z,-1.6
2023-01-19T01:08:18.165Z,-1.6
2023-01-19T01:10:20.932Z,-1.6
2023-01-19T01:12:21.301Z,-1.6
2023-01-19T01:18:18.949Z,-1.6
2023-01-19T01:22:21.002Z,-1.5
2023-01-19T01:24:27.698Z,-1.6
2023-01-19T01:30:18.102Z,-1.6
2023-01-19T01:32:19.477Z,-1.6
2023-01-19T01:36:17.823Z,-1.6
2023-01-19T01:38:20.682Z,-1.6
2023-01-19T01:40:16.671Z,-1.5
2023-01-19T01:42:14.619Z,-1.6
2023-01-19T01:44:21.788Z,-1.5
2023-01-19T01:46:21.041Z,-1.6
2023-01-19T01:48:17.040Z,-1.5
2023-01-19T01:50:16.984Z,-1.5
2023-01-19T01:54:19.751Z,-1.5
2023-01-19T01:56:21.057Z,-1.5
2023-01-19T02:00:18.201Z,-1.5
2023-01-19T02:06:18.225Z,-1.5
2023-01-19T02:10:21.033Z,-1.5
2023-01-19T02:12:14.653Z,-1.5
2023-01-19T02:14:17.541Z,-1.5
2023-01-19T02:18:19.252Z,-1.5
2023-01-19T02:20:20.915Z,-1.5
2023-01-19T02:24:20.849Z,-1.6
2023-01-19T02:26:21.025Z,-1.7
2023-01-19T02:28:21.052Z,-1.6
2023-01-19T02:30:18.179Z,-1.6
2023-01-19T02:34:15.063Z,-1.6
2023-01-19T02:36:15.743Z,-1.6
2023-01-19T02:42:18.131Z,-1.6
2023-01-19T02:48:16.267Z,-1.6
2023-01-19T02:52:19.609Z,-1.7
2023-01-19T02:54:19.644Z,-1.7
2023-01-19T02:56:21.135Z,-1.7
2023-01-19T03:00:18.057Z,-1.7
2023-01-19T03:02:21.680Z,-1.7
2023-01-19T03:04:18.303Z,-1.7
2023-01-19T03:06:14.650Z,-1.7
2023-01-19T03:12:15.711Z,-1.7
2023-01-19T03:14:20.951Z,-1.8
2023-01-19T03:16:21.821Z,-1.9
2023-01-19T03:18:17.176Z,-1.8
2023-01-19T03:20:20.204Z,-1.9
2023-01-19T03:22:15.790Z,-1.9
2023-01-19T03:24:21.373Z,-1.9
2023-01-19T03:26:17.677Z,-2
2023-01-19T03:28:18.154Z,-2
2023-01-19T03:30:14.636Z,-2
2023-01-19T03:32:21.059Z,-2
2023-01-19T03:36:17.730Z,-2.2
2023-01-19T03:40:19.317Z,-2.3
2023-01-19T03:42:14.698Z,-2.3
2023-01-19T03:46:17.821Z,-2.5
2023-01-19T03:48:14.687Z,-2.5
2023-01-19T03:50:20.943Z,-2.6
2023-01-19T03:52:18.390Z,-2.7
2023-01-19T03:54:18.205Z,-2.8
2023-01-19T03:56:16.265Z,-2.8
2023-01-19T03:58:20.810Z,-2.8
2023-01-19T04:00:18.398Z,-2.9
2023-01-19T04:02:17.956Z,-2.8
2023-01-19T04:06:20.983Z,-2.9
2023-01-19T04:08:19.233Z,-2.9
2023-01-19T04:10:21.342Z,-3
2023-01-19T04:12:14.705Z,-3.1
2023-01-19T04:14:17.405Z,-3.1
2023-01-19T04:16:14.798Z,-3
2023-01-19T04:18:14.918Z,-3.1
2023-01-19T04:20:16.829Z,-3
2023-01-19T04:22:14.704Z,-3.1
2023-01-19T04:24:18.154Z,-3.2
2023-01-19T04:26:21.037Z,-3.1
2023-01-19T04:28:17.670Z,-3.2
2023-01-19T04:30:17.145Z,-3.2
2023-01-19T04:34:18.201Z,-3.2
2023-01-19T04:36:17.114Z,-3.2
2023-01-19T04:38:21.507Z,-3.2
2023-01-19T04:42:19.756Z,-3.2
2023-01-19T04:44:14.745Z,-3.4
2023-01-19T04:46:21.381Z,-3.5
2023-01-19T04:48:18.188Z,-3.4
2023-01-19T04:54:18.166Z,-3.4
2023-01-19T04:56:20.638Z,-3.5
2023-01-19T04:58:21.068Z,-3.4
2023-01-19T05:00:18.228Z,-3.4
2023-01-19T05:02:16.261Z,-3.4
2023-01-19T05:06:19.550Z,-3.5
2023-01-19T05:08:20.646Z,-3.4
2023-01-19T05:12:20.657Z,-3.5
2023-01-19T05:16:14.784Z,-3.7
2023-01-19T05:18:14.500Z,-3.7
2023-01-19T05:20:16.442Z,-3.6
2023-01-19T05:24:17.757Z,-3.6
2023-01-19T05:26:19.409Z,-3.6
2023-01-19T05:28:20.921Z,-3.6
2023-01-19T05:30:17.632Z,-3.7
2023-01-19T05:34:20.881Z,-3.9
2023-01-19T05:36:20.968Z,-3.7
2023-01-19T05:38:34.448Z,-3.7
2023-01-19T05:40:18.372Z,-3.8
2023-01-19T05:42:16.455Z,-3.8
2023-01-19T05:44:21.468Z,-3.8
2023-01-19T05:46:21.084Z,-3.9
2023-01-19T05:48:21.454Z,-3.8
2023-01-19T05:52:21.183Z,-3.9
2023-01-19T05:54:17.531Z,-3.9
2023-01-19T05:58:16.301Z,-3.9
2023-01-19T06:00:14.741Z,-3.9
2023-01-19T06:02:22.062Z,-4
2023-01-19T06:04:19.254Z,-4
2023-01-19T06:06:21.151Z,-4
2023-01-19T06:08:21.587Z,-4.1
2023-01-19T06:10:18.324Z,-4.1
2023-01-19T06:12:16.861Z,-4
2023-01-19T06:18:17.820Z,-4.1
2023-01-19T06:22:14.790Z,-4.2
2023-01-19T06:24:15.033Z,-4.1
2023-01-19T06:26:21.046Z,-4.1
2023-01-19T06:30:18.290Z,-4.1
2023-01-19T06:32:15.293Z,-4.2
2023-01-19T06:34:19.626Z,-4.2
2023-01-19T06:36:14.780Z,-4.2
2023-01-19T06:38:21.099Z,-4.2
2023-01-19T06:40:21.497Z,-4.2
2023-01-19T06:42:18.309Z,-4.3
2023-01-19T06:46:21.208Z,-4.2
2023-01-19T06:48:20.828Z,-4.3
2023-01-19T06:50:16.412Z,-4.2
2023-01-19T06:52:18.577Z,-4.2
2023-01-19T06:54:21.571Z,-4.2
2023-01-19T06:56:21.571Z,-4.1
2023-01-19T06:58:20.929Z,-4.2
2023-01-19T07:00:21.129Z,-4.2
2023-01-19T07:04:18.953Z,-4.1
2023-01-19T07:06:14.665Z,-4.2
2023-01-19T07:08:21.721Z,-4
2023-01-19T07:10:15.835Z,-4
2023-01-19T07:12:14.947Z,-4
2023-01-19T07:14:21.208Z,-3.9
2023-01-19T07:16:20.661Z,-4
2023-01-19T07:18:19.006Z,-3.9
2023-01-19T07:20:21.725Z,-3.9
2023-01-19T07:22:16.024Z,-3.9
2023-01-19T07:24:21.280Z,-3.8
2023-01-19T07:26:15.073Z,-3.7
2023-01-19T07:28:19.104Z,-3.8
2023-01-19T07:30:18.420Z,-3.7
2023-01-19T07:32:18.013Z,-3.6
2023-01-19T07:34:18.462Z,-3.5
2023-01-19T07:36:18.430Z,-3.5
2023-01-19T07:38:15.885Z,-3.4
2023-01-19T07:40:15.078Z,-3.4
2023-01-19T07:42:14.768Z,-3.4
2023-01-19T07:44:21.781Z,-3.4
2023-01-19T07:46:17.345Z,-3.4
2023-01-19T07:48:17.549Z,-3.4
2023-01-19T07:50:15.939Z,-3.2
2023-01-19T07:52:21.348Z,-3.2
2023-01-19T07:54:14.844Z,-3.2
2023-01-19T07:56:21.024Z,-3.2
2023-01-19T08:00:20.424Z,-3.2
2023-01-19T08:02:19.142Z,-3.2
2023-01-19T08:04:18.373Z,-3.3
2023-01-19T08:06:21.039Z,-3.2
2023-01-19T08:08:19.384Z,-3.1
2023-01-19T08:10:17.298Z,-3.1
2023-01-19T08:12:17.841Z,-3.2
2023-01-19T08:14:21.123Z,-3.1
2023-01-19T08:16:19.856Z,-3.2
2023-01-19T08:18:16.135Z,-3.1
2023-01-19T08:20:15.342Z,-3.1
2023-01-19T08:22:21.590Z,-3
2023-01-19T08:24:21.784Z,-3
2023-01-19T08:26:19.528Z,-2.9
2023-01-19T08:28:21.303Z,-2.8
2023-01-19T08:34:22.085Z,-1.6
2023-01-19T08:36:18.619Z,-0.5
2023-01-19T08:38:15.186Z,-0.4
2023-01-19T08:40:15.201Z,0.3
2023-01-19T08:42:19.855Z,1.3
2023-01-19T08:44:18.169Z,1.9
2023-01-19T08:46:15.234Z,1.7
2023-01-19T08:48:15.300Z,2.2
2023-01-19T08:50:18.280Z,2.3
2023-01-19T08:52:16.167Z,1.6
2023-01-19T08:54:17.607Z,0
2023-01-19T08:56:20.611Z,0
2023-01-19T08:58:21.693Z,-0.3
2023-01-19T09:00:15.066Z,0.1
2023-01-19T09:04:15.436Z,2.4
2023-01-19T09:06:15.207Z,2.4
2023-01-19T09:08:17.971Z,2.4
2023-01-19T09:10:15.385Z,2.4
2023-01-19T09:12:15.129Z,2
2023-01-19T09:14:18.920Z,2.5
2023-01-19T09:16:16.862Z,2.5
2023-01-19T09:18:22.053Z,2.6
2023-01-19T09:20:18.682Z,2.6
2023-01-19T09:22:15.390Z,2.6
2023-01-19T09:24:15.329Z,2.5
2023-01-19T09:26:19.727Z,2.5
2023-01-19T09:28:17.011Z,2.5
2023-01-19T09:30:22.163Z,2.6
2023-01-19T09:32:15.425Z,2.6
2023-01-19T09:34:18.906Z,2.7
2023-01-19T09:36:15.396Z,2.7
2023-01-19T09:38:19.002Z,2.7
2023-01-19T09:40:15.656Z,2.8
2023-01-19T09:42:19.014Z,2.7
2023-01-19T09:44:18.407Z,2.8
2023-01-19T09:46:22.355Z,2.8
2023-01-19T09:48:19.320Z,2.8
2023-01-19T09:50:22.246Z,2.9
2023-01-19T09:52:18.225Z,2.9
2023-01-19T09:54:19.050Z,2.9
2023-01-19T09:56:18.153Z,2.9
2023-01-19T09:58:15.901Z,3.1
2023-01-19T10:00:19.146Z,2.9
2023-01-19T10:02:19.132Z,3
2023-01-19T10:04:22.668Z,2.9
2023-01-19T10:06:15.443Z,2.9
2023-01-19T10:08:16.426Z,2.9
2023-01-19T10:10:20.305Z,3
2023-01-19T10:12:17.907Z,2.9
2023-01-19T10:14:15.657Z,2.9
2023-01-19T10:16:22.271Z,2.9
2023-01-19T10:18:15.579Z,3
2023-01-19T10:20:19.321Z,3.1
2023-01-19T10:22:16.797Z,3.1
2023-01-19T10:24:20.445Z,3.2
2023-01-19T10:26:18.563Z,3.2
2023-01-19T10:28:20.970Z,3.3
2023-01-19T10:30:19.450Z,3.3
2023-01-19T10:32:22.442Z,3.2
2023-01-19T10:34:18.889Z,3.2
2023-01-19T10:36:19.077Z,3.3
2023-01-19T10:38:19.388Z,3.4
2023-01-19T10:40:17.646Z,3.4
2023-01-19T10:42:22.554Z,3.4
2023-01-19T10:44:18.958Z,3.4
2023-01-19T10:48:17.049Z,3.4
2023-01-19T10:52:17.799Z,3.5
2023-01-19T10:54:23.094Z,3.6
2023-01-19T10:56:15.940Z,3.6
2023-01-19T10:58:18.945Z,3.6
2023-01-19T11:00:19.073Z,3.6
2023-01-19T11:02:19.176Z,3.6
2023-01-19T11:04:19.475Z,3.6
2023-01-19T11:06:18.778Z,3.6
2023-01-19T11:08:23.708Z,3.6
2023-01-19T11:10:15.987Z,3.5
2023-01-19T11:12:22.741Z,3.5
2023-01-19T11:14:18.652Z,3.5
2023-01-19T11:16:19.158Z,3.5
2023-01-19T11:18:19.528Z,3.5
2023-01-19T11:20:16.130Z,3.5
2023-01-19T11:22:16.428Z,3.6
2023-01-19T11:24:19.881Z,3.6
2023-01-19T11:26:20.163Z,3.6
2023-01-19T11:28:17.295Z,3.6
2023-01-19T11:30:16.035Z,3.6
2023-01-19T11:32:20.127Z,3.6
2023-01-19T11:36:18.367Z,3.4
2023-01-19T11:38:16.134Z,3.4
2023-01-19T11:40:16.056Z,3.5
2023-01-19T11:42:16.003Z,3.4
2023-01-19T11:44:17.339Z,3.4
2023-01-19T11:46:16.113Z,3.5
2023-01-19T11:48:15.848Z,3.4
2023-01-19T11:52:16.096Z,3.5
2023-01-19T11:54:16.245Z,3.5
2023-01-19T11:56:16.111Z,3.5
2023-01-19T11:58:16.108Z,3.5
2023-01-19T12:00:19.732Z,3.5
2023-01-19T12:02:16.418Z,3.4
2023-01-19T12:08:19.162Z,3.4
2023-01-19T12:10:16.085Z,2.8
2023-01-19T12:12:15.913Z,2.7
2023-01-19T12:16:24.169Z,3
2023-01-19T12:18:20.074Z,3.1
2023-01-19T12:20:16.153Z,2.8
2023-01-19T12:24:17.210Z,3.2
2023-01-19T12:26:16.125Z,3.3
2023-01-19T12:28:16.762Z,3.1
2023-01-19T12:30:19.936Z,2.5
2023-01-19T12:32:17.197Z,2.4
2023-01-19T12:34:18.730Z,2.9
2023-01-19T12:36:15.878Z,2.5
2023-01-19T12:38:16.223Z,3.1
2023-01-19T12:40:23.579Z,2.3
2023-01-19T12:42:15.872Z,2.1
2023-01-19T12:44:16.148Z,1.8
2023-01-19T12:46:16.302Z,1.7
2023-01-19T12:48:21.430Z,1.5
2023-01-19T12:50:16.168Z,1.8
2023-01-19T12:52:16.095Z,2.3
2023-01-19T12:54:15.891Z,2
2023-01-19T12:56:16.213Z,1.8
2023-01-19T12:58:19.627Z,1.8
2023-01-19T13:00:20.949Z,1.7
2023-01-19T13:02:16.263Z,1.8
2023-01-19T13:04:16.220Z,1.7
2023-01-19T13:06:16.716Z,1.4
2023-01-19T13:08:16.660Z,1.4
2023-01-19T13:10:23.674Z,1.4
2023-01-19T13:12:19.439Z,1.5
2023-01-19T13:14:16.091Z,1.2
2023-01-19T13:16:19.723Z,1.5
2023-01-19T13:18:15.868Z,1.5
2023-01-19T13:20:19.689Z,1.6
2023-01-19T13:22:16.300Z,2.4
2023-01-19T13:24:18.519Z,2.5
2023-01-19T13:26:16.318Z,2.6
2023-01-19T13:28:16.866Z,3
2023-01-19T13:30:15.922Z,2.8
2023-01-19T13:32:19.614Z,3.2
2023-01-19T13:34:16.090Z,3.2
2023-01-19T13:36:16.645Z,2.4
2023-01-19T13:38:20.568Z,2
2023-01-19T13:42:15.944Z,1.6
2023-01-19T13:44:19.165Z,1.7
2023-01-19T13:46:16.245Z,1.3
2023-01-19T13:48:22.760Z,1
2023-01-19T13:52:19.575Z,1.2
2023-01-19T13:54:18.777Z,1
2023-01-19T13:56:16.283Z,1.1
2023-01-19T13:58:16.245Z,1.1
2023-01-19T14:00:21.297Z,1.1
2023-01-19T14:02:16.305Z,1.1
2023-01-19T14:04:23.245Z,1
2023-01-19T14:06:26.184Z,0.9
2023-01-19T14:08:19.592Z,1
2023-01-19T14:10:20.417Z,1
2023-01-19T14:12:15.911Z,0.9
2023-01-19T14:16:16.180Z,0.8
2023-01-19T14:18:18.602Z,0.8
2023-01-19T14:20:16.165Z,0.9
2023-01-19T14:22:16.118Z,1
2023-01-19T14:24:17.072Z,1
2023-01-19T14:26:16.121Z,0.8
2023-01-19T14:28:17.197Z,0.7
2023-01-19T14:30:15.913Z,0.7
2023-01-19T14:32:16.608Z,0.6
2023-01-19T14:34:18.954Z,0.5
2023-01-19T14:36:19.638Z,0.6
2023-01-19T14:38:16.220Z,0.5
2023-01-19T14:40:24.121Z,0.5
2023-01-19T14:44:16.600Z,0.4
2023-01-19T14:46:19.533Z,0.4
2023-01-19T14:48:18.136Z,0.4
2023-01-19T14:50:16.172Z,0.4
2023-01-19T14:52:16.111Z,0.4
2023-01-19T14:56:16.617Z,0.4
2023-01-19T14:58:16.119Z,0.4
2023-01-19T15:00:17.329Z,0.3
2023-01-19T15:02:18.572Z,0.3
2023-01-19T15:04:16.100Z,0.4
2023-01-19T15:06:23.020Z,0.3
2023-01-19T15:08:16.125Z,0.2
2023-01-19T15:10:16.549Z,0.1
2023-01-19T15:12:17.337Z,0.1
2023-01-19T15:14:16.134Z,0.1
2023-01-19T15:16:16.188Z,0
2023-01-19T15:18:19.686Z,0.1
2023-01-19T15:20:18.764Z,0
2023-01-19T15:22:29.330Z,0
2023-01-19T15:24:18.964Z,0
2023-01-19T15:26:16.542Z,-0.1
2023-01-19T15:28:16.117Z,-0.1
2023-01-19T15:30:15.931Z,-0.2
2023-01-19T15:32:16.449Z,-0.2
2023-01-19T15:34:17.250Z,-0.2
2023-01-19T15:36:17.908Z,-0.2
2023-01-19T15:40:17.187Z,-0.2
2023-01-19T15:42:15.996Z,-0.2
2023-01-19T15:44:16.172Z,-0.3
2023-01-19T15:46:16.221Z,-0.3
2023-01-19T15:48:16.000Z,-0.4
2023-01-19T15:50:16.794Z,-0.3
2023-01-19T15:52:17.140Z,-0.4
2023-01-19T15:54:17.244Z,-0.4
2023-01-19T15:56:16.172Z,-0.4
2023-01-19T15:58:19.496Z,-0.4
2023-01-19T16:00:17.225Z,-0.4
2023-01-19T16:02:16.350Z,-0.5
2023-01-19T16:04:19.188Z,-0.5
2023-01-19T16:08:16.600Z,-0.5
2023-01-19T16:10:17.186Z,-0.6
2023-01-19T16:12:18.539Z,-0.6
2023-01-19T16:14:17.538Z,-0.5
2023-01-19T16:18:16.295Z,-0.6
2023-01-19T16:20:16.549Z,-0.5
2023-01-19T16:26:18.782Z,-0.5
2023-01-19T16:28:16.111Z,-0.5
2023-01-19T16:30:16.010Z,-0.4
2023-01-19T16:32:17.000Z,-0.5
2023-01-19T16:34:16.222Z,-0.6
2023-01-19T16:36:17.200Z,-0.6
2023-01-19T16:38:16.416Z,-0.7
2023-01-19T16:40:16.213Z,-0.7
2023-01-19T16:42:23.396Z,-0.7
2023-01-19T16:44:16.545Z,-0.7
2023-01-19T16:46:16.211Z,-0.7
2023-01-19T16:48:16.022Z,-0.8
2023-01-19T16:50:16.211Z,-0.8
2023-01-19T16:52:16.136Z,-0.9
2023-01-19T16:54:16.033Z,-0.8
2023-01-19T16:56:16.549Z,-0.8
2023-01-19T16:58:16.129Z,-0.8
2023-01-19T17:00:15.910Z,-0.7
2023-01-19T17:02:16.168Z,-0.8
2023-01-19T17:04:16.155Z,-0.8
2023-01-19T17:06:16.301Z,-0.9
2023-01-19T17:08:16.149Z,-0.8
2023-01-19T17:10:18.579Z,-0.8
2023-01-19T17:12:23.172Z,-0.8
2023-01-19T17:16:18.573Z,-0.8
2023-01-19T17:18:19.630Z,-0.8
2023-01-19T17:22:16.168Z,-0.8
2023-01-19T17:24:16.277Z,-0.7
2023-01-19T17:28:18.969Z,-0.7
2023-01-19T17:30:17.293Z,-0.8
2023-01-19T17:32:16.239Z,-0.8
2023-01-19T17:34:19.073Z,-0.8
2023-01-19T17:36:17.306Z,-0.8
2023-01-19T17:38:16.225Z,-0.8
2023-01-19T17:40:16.150Z,-0.8
2023-01-19T17:42:20.900Z,-0.9
2023-01-19T17:46:19.023Z,-0.9
2023-01-19T17:48:19.007Z,-0.9
2023-01-19T17:50:16.162Z,-0.9
2023-01-19T17:52:23.268Z,-1
2023-01-19T17:54:16.402Z,-1.1
2023-01-19T17:56:16.666Z,-1.3
2023-01-19T17:58:16.146Z,-1.2
2023-01-19T18:00:15.947Z,-1.3
2023-01-19T18:02:16.478Z,-1.2
2023-01-19T18:04:17.226Z,-1.3
2023-01-19T18:06:23.296Z,-1.3
2023-01-19T18:08:16.184Z,-1.2
2023-01-19T18:10:17.390Z,-1.4
2023-01-19T18:12:16.372Z,-1.3
2023-01-19T18:14:16.188Z,-1.3
2023-01-19T18:16:19.589Z,-1.4
2023-01-19T18:18:15.958Z,-1.4
2023-01-19T18:20:24.129Z,-1.4
2023-01-19T18:22:16.319Z,-1.4
2023-01-19T18:24:16.066Z,-1.3
2023-01-19T18:26:16.197Z,-1.3
2023-01-19T18:28:20.220Z,-1.3
2023-01-19T18:30:19.313Z,-1.4
2023-01-19T18:32:16.231Z,-1.3
2023-01-19T18:34:16.140Z,-1.3
2023-01-19T18:36:17.328Z,-1.3
2023-01-19T18:38:18.832Z,-1.3
2023-01-19T18:42:19.252Z,-1.3
2023-01-19T18:44:16.437Z,-1.4
2023-01-19T18:46:17.353Z,-1.3
2023-01-19T18:48:17.964Z,-1.3
2023-01-19T18:50:22.916Z,-1.4
2023-01-19T18:52:19.243Z,-1.5
2023-01-19T18:54:19.224Z,-1.3
2023-01-19T18:56:22.809Z,-1.4
2023-01-19T18:58:19.257Z,-1.5
2023-01-19T19:00:22.901Z,-1.5
2023-01-19T19:02:16.252Z,-1.5
2023-01-19T19:04:16.262Z,-1.4
2023-01-19T19:06:19.790Z,-1.6
2023-01-19T19:08:16.287Z,-1.6
2023-01-19T19:10:24.252Z,-1.6
2023-01-19T19:12:15.966Z,-1.5
2023-01-19T19:14:18.807Z,-1.5
2023-01-19T19:16:23.225Z,-1.6
2023-01-19T19:18:18.778Z,-1.6
2023-01-19T19:20:17.027Z,-1.6
2023-01-19T19:22:16.168Z,-1.6
2023-01-19T19:24:15.999Z,-1.7
2023-01-19T19:28:16.139Z,-1.5
2023-01-19T19:30:16.348Z,-1.6
2023-01-19T19:32:16.284Z,-1.6
2023-01-19T19:34:23.705Z,-1.6
2023-01-19T19:38:16.188Z,-1.7
2023-01-19T19:40:23.614Z,-1.6
2023-01-19T19:42:15.967Z,-1.6
2023-01-19T19:44:16.652Z,-1.7
2023-01-19T19:46:16.637Z,-1.6
2023-01-19T19:48:15.961Z,-1.6
2023-01-19T19:50:19.299Z,-1.6
2023-01-19T19:52:23.776Z,-1.5
2023-01-19T19:56:16.583Z,-1.5
2023-01-19T20:02:19.506Z,-1.3
2023-01-19T20:04:16.621Z,-1.3
2023-01-19T20:06:19.264Z,-1.4
2023-01-19T20:08:19.652Z,-1.4
2023-01-19T20:10:16.961Z,-1.4
2023-01-19T20:14:16.638Z,-1.4
2023-01-19T20:16:16.215Z,-1.5
2023-01-19T20:20:16.205Z,-1.5
2023-01-19T20:22:18.869Z,-1.3
2023-01-19T20:24:16.554Z,-1.3
2023-01-19T20:28:19.665Z,-1.3
2023-01-19T20:30:15.968Z,-1.4
2023-01-19T20:32:16.334Z,-1.4
2023-01-19T20:34:23.852Z,-1.5
2023-01-19T20:36:16.314Z,-1.3
2023-01-19T20:38:19.337Z,-1.4
2023-01-19T20:40:16.150Z,-1.4
2023-01-19T20:42:16.314Z,-1.6
2023-01-19T20:44:19.284Z,-1.4
2023-01-19T20:46:17.268Z,-1.3
2023-01-19T20:48:15.944Z,-1.3
2023-01-19T20:50:16.722Z,-1.3
2023-01-19T20:52:16.211Z,-1.3
2023-01-19T20:54:16.476Z,-1.4
2023-01-19T20:58:16.205Z,-1.3
2023-01-19T21:00:18.901Z,-1.4
2023-01-19T21:04:17.352Z,-1.4
2023-01-19T21:06:17.416Z,-1.4
2023-01-19T21:08:16.494Z,-1.4
2023-01-19T21:10:16.673Z,-1.3
2023-01-19T21:12:15.986Z,-1.4
2023-01-19T21:14:16.205Z,-1.4
2023-01-19T21:16:16.749Z,-1.4
2023-01-19T21:18:22.867Z,-1.5
2023-01-19T21:20:18.809Z,-1.6
2023-01-19T21:22:18.637Z,-1.6
2023-01-19T21:24:20.831Z,-1.4
2023-01-19T21:26:20.430Z,-1.3
2023-01-19T21:28:23.397Z,-1.4
2023-01-19T21:30:15.953Z,-1.4
2023-01-19T21:32:22.348Z,-1.5
2023-01-19T21:34:16.159Z,-1.4
2023-01-19T21:36:16.918Z,-1.3
2023-01-19T21:38:23.204Z,-1.2
2023-01-19T21:40:16.157Z,-1.2
2023-01-19T21:42:15.987Z,-1.3
2023-01-19T21:44:16.975Z,-1.5
2023-01-19T21:46:18.538Z,-1.6
2023-01-19T21:48:16.314Z,-1.6
2023-01-19T21:50:16.220Z,-1.5
2023-01-19T21:52:16.153Z,-1.4
2023-01-19T21:54:16.075Z,-1.4
2023-01-19T21:56:17.077Z,-1.4
2023-01-19T21:58:16.154Z,-1.4
2023-01-19T22:00:17.351Z,-1.4
2023-01-19T22:02:23.899Z,-1.4
2023-01-19T22:06:16.015Z,-1.5
2023-01-19T22:08:18.818Z,-1.4
2023-01-19T22:10:16.222Z,-1.4
2023-01-19T22:12:16.004Z,-1.4
2023-01-19T22:14:24.556Z,-1.4
2023-01-19T22:16:16.237Z,-1.4
2023-01-19T22:18:17.271Z,-1.5
2023-01-19T22:20:16.324Z,-1.6
2023-01-19T22:22:16.299Z,-1.6
2023-01-19T22:24:16.492Z,-1.5
2023-01-19T22:26:16.558Z,-1.5
2023-01-19T22:28:16.194Z,-1.4
2023-01-19T22:30:15.992Z,-1.5
2023-01-19T22:36:22.882Z,-1.6
2023-01-19T22:38:16.607Z,-1.6
2023-01-19T22:40:16.729Z,-1.6
2023-01-19T22:42:15.971Z,-1.6
2023-01-19T22:44:16.203Z,-1.6
2023-01-19T22:46:18.346Z,-1.4
2023-01-19T22:48:23.534Z,-1.6
2023-01-19T22:50:16.657Z,-1.5
2023-01-19T22:52:16.190Z,-1.5
2023-01-19T22:54:20.045Z,-1.4
2023-01-19T22:56:22.910Z,-1.4
2023-01-19T23:00:18.817Z,-1.4
2023-01-19T23:02:18.085Z,-1.6
2023-01-19T23:04:16.183Z,-1.5
2023-01-19T23:08:19.709Z,-1.5
2023-01-19T23:10:23.013Z,-1.6
2023-01-19T23:12:19.759Z,-1.6
2023-01-19T23:16:16.169Z,-1.5
2023-01-19T23:20:16.323Z,-1.4
2023-01-19T23:22:23.820Z,-1.5
2023-01-19T23:24:22.630Z,-1.6
2023-01-19T23:26:16.211Z,-1.6
2023-01-19T23:28:16.715Z,-1.6
2023-01-19T23:30:19.362Z,-1.4
2023-01-19T23:32:16.653Z,-1.5
2023-01-19T23:34:19.017Z,-1.5
2023-01-19T23:36:18.841Z,-1.4
2023-01-19T23:40:16.287Z,-1.4
2023-01-19T23:42:16.746Z,-1.3
2023-01-19T23:44:16.614Z,-1.4
2023-01-19T23:46:16.249Z,-1.3
2023-01-19T23:48:16.742Z,-1.4
2023-01-19T23:50:19.725Z,-1.4
2023-01-19T23:52:16.623Z,-1.5
2023-01-19T23:54:16.006Z,-1.5
2023-01-19T23:56:16.266Z,-1.5
2023-01-19T23:58:22.971Z,-1.6
